Time,TemperatureF,DewpointF,PressureIn,WindDirection,WindDirectionDegrees,WindSpeedMPH,WindSpeedGustMPH,Humidity,HourlyPrecipIn,Conditions,Clouds,dailyrainin,SoftwareType,DateUTC
2013-03-21 00:09:00,50.5,47.4,29.95,SW,225,0.0,-999.0,89,-99.99,,,0.00,Acu-Link.com,2013-03-21 07:09:00,
2013-03-21 00:25:00,49.8,46.7,29.94,SW,225,0.0,-999.0,89,-99.99,,,0.00,Acu-Link.com,2013-03-21 07:25:00,
2013-03-21 00:40:00,49.6,46.8,29.94,SW,225,1.7,-999.0,90,-99.99,,,0.00,Acu-Link.com,2013-03-21 07:40:00,
2013-03-21 00:55:00,49.5,46.7,29.93,SW,225,1.7,-999.0,90,-99.99,,,0.00,Acu-Link.com,2013-03-21 07:55:00,
2013-03-21 01:10:00,49.1,46.3,29.93,SW,225,0.0,-999.0,90,-99.99,,,0.00,Acu-Link.com,2013-03-21 08:10:00,
2013-03-21 01:25:00,48.7,46.2,29.92,SW,225,0.0,-999.0,91,-99.99,,,0.00,Acu-Link.com,2013-03-21 08:25:00,
2013-03-21 01:40:00,48.6,46.1,29.92,SW,225,0.0,-999.0,91,-99.99,,,0.00,Acu-Link.com,2013-03-21 08:40:00,
2013-03-21 01:56:00,48.6,46.1,29.92,SW,225,2.2,-999.0,91,-99.99,,,0.00,Acu-Link.com,2013-03-21 08:56:00,
2013-03-21 02:11:00,48.7,46.5,29.93,SW,225,1.1,-999.0,92,-99.99,,,0.00,Acu-Link.com,2013-03-21 09:11:00,
2013-03-21 02:26:00,48.6,46.4,29.93,SW,225,0.0,-999.0,92,-99.99,,,0.00,Acu-Link.com,2013-03-21 09:26:00,
2013-03-21 02:41:00,48.4,46.2,29.91,SW,225,0.0,-999.0,92,-99.99,,,0.00,Acu-Link.com,2013-03-21 09:41:00,
2013-03-21 02:56:00,48.0,45.8,29.92,SW,225,0.0,-999.0,92,-99.99,,,0.00,Acu-Link.com,2013-03-21 09:56:00,
2013-03-21 03:12:00,48.0,45.8,29.92,SW,225,0.0,-999.0,92,-99.99,,,0.00,Acu-Link.com,2013-03-21 10:12:00,
2013-03-21 03:27:00,47.8,45.6,29.92,SW,225,1.7,-999.0,92,-99.99,,,0.00,Acu-Link.com,2013-03-21 10:27:00,
2013-03-21 03:42:00,47.8,45.9,29.92,SW,225,0.0,-999.0,93,-99.99,,,0.00,Acu-Link.com,2013-03-21 10:42:00,
2013-03-21 03:57:00,47.7,45.8,29.91,SW,225,0.0,-999.0,93,-99.99,,,0.00,Acu-Link.com,2013-03-21 10:57:00,
2013-03-21 04:12:00,47.3,45.4,29.91,SW,225,1.1,-999.0,93,-99.99,,,0.00,Acu-Link.com,2013-03-21 11:12:00,
2013-03-21 04:28:00,47.5,45.6,29.91,SW,225,0.0,-999.0,93,-99.99,,,0.00,Acu-Link.com,2013-03-21 11:28:00,
2013-03-21 04:43:00,47.1,45.2,29.90,SW,225,0.0,-999.0,93,-99.99,,,0.00,Acu-Link.com,2013-03-21 11:43:00,
2013-03-21 04:58:00,46.9,45.3,29.90,SW,225,2.2,-999.0,94,-99.99,,,0.00,Acu-Link.com,2013-03-21 11:58:00,
2013-03-21 05:13:00,46.6,45.0,29.90,SW,225,0.0,-999.0,94,-99.99,,,0.00,Acu-Link.com,2013-03-21 12:13:00,
2013-03-21 05:28:00,46.2,44.6,29.89,SW,225,2.2,-999.0,94,-99.99,,,0.00,Acu-Link.com,2013-03-21 12:28:00,
2013-03-21 05:59:00,45.9,44.3,29.90,SW,225,0.0,-999.0,94,-99.99,,,0.00,Acu-Link.com,2013-03-21 12:59:00,
2013-03-21 06:14:00,45.7,44.1,29.89,SW,225,1.7,-999.0,94,-99.99,,,0.00,Acu-Link.com,2013-03-21 13:14:00,
2013-03-21 06:29:00,45.3,43.7,29.90,SW,225,0.0,-999.0,94,-99.99,,,0.00,Acu-Link.com,2013-03-21 13:29:00,
2013-03-21 06:44:00,45.1,43.5,29.91,SW,225,0.0,-999.0,94,-99.99,,,0.00,Acu-Link.com,2013-03-21 13:44:00,
2013-03-21 07:00:00,45.0,43.4,29.89,SW,225,1.7,-999.0,94,-99.99,,,0.00,Acu-Link.com,2013-03-21 14:00:00,
2013-03-21 07:15:00,45.3,44.0,29.90,SW,225,1.7,-999.0,95,-99.99,,,0.00,Acu-Link.com,2013-03-21 14:15:00,
2013-03-21 07:30:00,45.3,44.0,29.90,SW,225,1.7,-999.0,95,-99.99,,,0.00,Acu-Link.com,2013-03-21 14:30:00,
2013-03-21 07:45:00,46.6,45.2,29.90,SW,225,2.2,-999.0,95,-99.99,,,0.00,Acu-Link.com,2013-03-21 14:45:00,
2013-03-21 08:01:00,49.1,47.7,29.91,SW,225,0.0,-999.0,95,-99.99,,,0.00,Acu-Link.com,2013-03-21 15:01:00,
2013-03-21 08:46:00,58.1,54.6,29.91,ESE,112,2.2,-999.0,88,-99.99,,,0.00,Acu-Link.com,2013-03-21 15:46:00,
2013-03-21 09:01:00,61.0,56.5,29.90,SW,225,1.1,-999.0,85,-99.99,,,0.00,Acu-Link.com,2013-03-21 16:01:00,
2013-03-21 09:32:00,63.1,56.5,29.91,South,180,2.2,-999.0,79,-99.99,,,0.00,Acu-Link.com,2013-03-21 16:32:00,
2013-03-21 09:47:00,64.4,57.0,29.90,SSE,157,1.1,-999.0,77,-99.99,,,0.00,Acu-Link.com,2013-03-21 16:47:00,
2013-03-21 10:02:00,64.4,56.3,29.91,SE,135,2.2,-999.0,75,-99.99,,,0.00,Acu-Link.com,2013-03-21 17:02:00,
2013-03-21 10:17:00,65.1,56.6,29.90,SSE,157,3.2,-999.0,74,-99.99,,,0.00,Acu-Link.com,2013-03-21 17:17:00,
2013-03-21 10:33:00,68.0,58.6,29.90,SSW,202,3.2,-999.0,72,-99.99,,,0.00,Acu-Link.com,2013-03-21 17:33:00,
2013-03-21 10:48:00,69.3,58.7,29.90,SSW,202,4.2,-999.0,69,-99.99,,,0.00,Acu-Link.com,2013-03-21 17:48:00,
2013-03-21 11:03:00,70.0,58.5,29.90,SW,225,4.7,-999.0,67,-99.99,,,0.00,Acu-Link.com,2013-03-21 18:03:00,
2013-03-21 11:18:00,70.3,58.0,29.89,South,180,7.3,-999.0,65,-99.99,,,0.00,Acu-Link.com,2013-03-21 18:18:00,
2013-03-21 11:33:00,70.0,57.7,29.89,SSE,157,5.3,-999.0,65,-99.99,,,0.00,Acu-Link.com,2013-03-21 18:33:00,
2013-03-21 11:49:00,70.2,57.9,29.89,South,180,5.8,-999.0,65,-99.99,,,0.00,Acu-Link.com,2013-03-21 18:49:00,
2013-03-21 12:04:00,71.1,58.7,29.89,SE,135,4.7,-999.0,65,-99.99,,,0.00,Acu-Link.com,2013-03-21 19:04:00,
2013-03-21 12:19:00,70.0,57.7,29.89,SSW,202,7.8,-999.0,65,-99.99,,,0.00,Acu-Link.com,2013-03-21 19:19:00,
2013-03-21 12:34:00,70.3,58.0,29.89,SSW,202,5.8,-999.0,65,-99.99,,,0.00,Acu-Link.com,2013-03-21 19:34:00,
2013-03-21 12:49:00,69.1,56.4,29.88,SSW,202,6.3,-999.0,64,-99.99,,,0.00,Acu-Link.com,2013-03-21 19:49:00,
2013-03-21 13:05:00,68.2,55.5,29.88,SSW,202,5.8,-999.0,64,-99.99,,,0.00,Acu-Link.com,2013-03-21 20:05:00,
2013-03-21 13:20:00,66.9,54.3,29.87,SSE,157,7.8,-999.0,64,-99.99,,,0.00,Acu-Link.com,2013-03-21 20:20:00,
2013-03-21 13:35:00,68.2,55.5,29.87,SSE,157,6.3,-999.0,64,-99.99,,,0.00,Acu-Link.com,2013-03-21 20:35:00,
2013-03-21 13:50:00,68.7,56.0,29.85,South,180,4.7,-999.0,64,-99.99,,,0.00,Acu-Link.com,2013-03-21 20:50:00,
2013-03-21 14:06:00,69.3,56.2,29.84,SSE,157,8.3,-999.0,63,-99.99,,,0.00,Acu-Link.com,2013-03-21 21:06:00,
2013-03-21 14:21:00,68.5,55.4,29.84,SSW,202,7.3,-999.0,63,-99.99,,,0.00,Acu-Link.com,2013-03-21 21:21:00,
2013-03-21 14:36:00,66.7,53.7,29.83,South,180,6.8,-999.0,63,-99.99,,,0.00,Acu-Link.com,2013-03-21 21:36:00,
2013-03-21 14:51:00,69.1,56.0,29.82,South,180,4.7,-999.0,63,-99.99,,,0.00,Acu-Link.com,2013-03-21 21:51:00,
2013-03-21 15:06:00,67.1,54.1,29.82,SSW,202,9.4,-999.0,63,-99.99,,,0.00,Acu-Link.com,2013-03-21 22:06:00,
2013-03-21 15:22:00,69.4,56.2,29.81,SSW,202,4.7,-999.0,63,-99.99,,,0.00,Acu-Link.com,2013-03-21 22:22:00,
2013-03-21 15:37:00,69.3,56.2,29.80,South,180,7.3,-999.0,63,-99.99,,,0.00,Acu-Link.com,2013-03-21 22:37:00,
2013-03-21 15:52:00,69.6,56.4,29.80,South,180,8.3,-999.0,63,-99.99,,,0.00,Acu-Link.com,2013-03-21 22:52:00,
2013-03-21 16:07:00,67.3,54.3,29.80,SW,225,6.3,-999.0,63,-99.99,,,0.00,Acu-Link.com,2013-03-21 23:07:00,
2013-03-21 16:22:00,65.5,53.0,29.80,South,180,8.9,-999.0,64,-99.99,,,0.00,Acu-Link.com,2013-03-21 23:22:00,
2013-03-21 16:38:00,65.7,54.0,29.80,SSE,157,6.3,-999.0,66,-99.99,,,0.00,Acu-Link.com,2013-03-21 23:38:00,
2013-03-21 16:53:00,64.6,53.0,29.80,South,180,5.3,-999.0,66,-99.99,,,0.00,Acu-Link.com,2013-03-21 23:53:00,
2013-03-21 17:08:00,63.0,52.3,29.80,South,180,5.8,-999.0,68,-99.99,,,0.00,Acu-Link.com,2013-03-22 00:08:00,
2013-03-21 17:23:00,62.2,51.9,29.79,South,180,5.3,-999.0,69,-99.99,,,0.00,Acu-Link.com,2013-03-22 00:23:00,
2013-03-21 17:39:00,61.7,51.8,29.80,South,180,5.3,-999.0,70,-99.99,,,0.00,Acu-Link.com,2013-03-22 00:39:00,
2013-03-21 17:54:00,60.8,51.3,29.80,SW,225,4.7,-999.0,71,-99.99,,,0.00,Acu-Link.com,2013-03-22 00:54:00,
2013-03-21 18:09:00,60.3,51.6,29.79,South,180,6.3,-999.0,73,-99.99,,,0.00,Acu-Link.com,2013-03-22 01:09:00,
2013-03-21 18:24:00,59.4,51.1,29.79,South,180,5.8,-999.0,74,-99.99,,,0.00,Acu-Link.com,2013-03-22 01:24:00,
2013-03-21 18:39:00,58.3,50.4,29.78,SW,225,3.2,-999.0,75,-99.99,,,0.00,Acu-Link.com,2013-03-22 01:39:00,
2013-03-21 18:55:00,57.2,50.1,29.76,SW,225,3.7,-999.0,77,-99.99,,,0.00,Acu-Link.com,2013-03-22 01:55:00,
2013-03-21 19:10:00,56.3,49.5,29.76,South,180,4.2,-999.0,78,-99.99,,,0.00,Acu-Link.com,2013-03-22 02:10:00,
2013-03-21 19:25:00,55.6,49.2,29.76,SW,225,2.2,-999.0,79,-99.99,,,0.00,Acu-Link.com,2013-03-22 02:25:00,
2013-03-21 19:40:00,54.9,49.2,29.77,SW,225,1.7,-999.0,81,-99.99,,,0.00,Acu-Link.com,2013-03-22 02:40:00,
2013-03-21 19:55:00,54.0,48.6,29.77,SW,225,0.0,-999.0,82,-99.99,,,0.00,Acu-Link.com,2013-03-22 02:55:00,
2013-03-21 20:41:00,52.3,47.9,29.78,SW,225,0.0,-999.0,85,-99.99,,,0.00,Acu-Link.com,2013-03-22 03:41:00,
2013-03-21 20:56:00,51.6,47.6,29.79,SW,225,1.7,-999.0,86,-99.99,,,0.00,Acu-Link.com,2013-03-22 03:56:00,
2013-03-21 21:11:00,51.3,47.6,29.80,SW,225,0.0,-999.0,87,-99.99,,,0.00,Acu-Link.com,2013-03-22 04:11:00,
2013-03-21 21:27:00,50.5,46.8,29.80,SW,225,0.0,-999.0,87,-99.99,,,0.00,Acu-Link.com,2013-03-22 04:27:00,
2013-03-21 21:42:00,50.2,46.8,29.80,SW,225,1.7,-999.0,88,-99.99,,,0.00,Acu-Link.com,2013-03-22 04:42:00,
2013-03-21 21:57:00,49.8,46.7,29.80,SW,225,1.7,-999.0,89,-99.99,,,0.00,Acu-Link.com,2013-03-22 04:57:00,
2013-03-21 22:12:00,49.6,46.5,29.80,SW,225,1.1,-999.0,89,-99.99,,,0.00,Acu-Link.com,2013-03-22 05:12:00,
2013-03-21 22:43:00,48.7,45.9,29.82,SW,225,1.1,-999.0,90,-99.99,,,0.00,Acu-Link.com,2013-03-22 05:43:00,
2013-03-21 22:58:00,48.2,45.4,29.82,SW,225,0.0,-999.0,90,-99.99,,,0.00,Acu-Link.com,2013-03-22 05:58:00,
2013-03-21 23:13:00,47.5,44.7,29.82,SW,225,1.7,-999.0,90,-99.99,,,0.00,Acu-Link.com,2013-03-22 06:13:00,
2013-03-21 23:28:00,46.9,44.4,29.82,SW,225,0.0,-999.0,91,-99.99,,,0.00,Acu-Link.com,2013-03-22 06:28:00,
2013-03-21 23:44:00,46.6,44.1,29.83,SW,225,0.0,-999.0,91,-99.99,,,0.00,Acu-Link.com,2013-03-22 06:44:00,
2013-03-21 23:59:00,46.0,43.5,29.82,SW,225,0.0,-999.0,91,-99.99,,,0.00,Acu-Link.com,2013-03-22 06:59:00,